首页
METAR-TAF:

METAR-TAF

机场 :

Fort Resolution, 西北特區, 加拿大

纬度: 61-11N, 经度: 113-41W, 海拔: 164米

当前天气观测

该预报发布于4小时和18分钟前的23:00 UTC
风速3节,风向
温度 -32°C
湿度 74%
气压 1026 hPa
能見度: 24.1公里
少量云层高于16000英尺

METAR: CYFR 112300Z 10003KT 15SM FEW160 M32/M35 A3030 RMK AC1 AC TR /0/40/ SNW CVR/MUCH LOOSE LAST STFD OBS/NEXT171500Z SLP292

时间: 20:18 (03:18 UTC)


TAF: 丢失

超过4000个机场的气象观测和天气预报(METAR&TAF报告)。

可查询的气象台以黄色和红色小点在地图上表示。

将鼠标移到小点上方,可查看气象台名称。

然后点击查看天气观测和预报。

如需切换地图:点击带黑十字的绿色按钮放大地图;点击带横线的绿色按钮缩小地图;或者点击绿色箭头查看邻近地区的地图。


METAR-TAF: